AirNav  
 
 1138 users online  

CL35 Warner Springs Gliderport
Warner Springs, California, USA

GOING TO WARNER SPRINGS?


FAA INFORMATION EFFECTIVE 09 NOVEMBER 2017

Location

FAA Identifier: CL35
Lat/Long: 33-17-04.2100N / 116-40-10.7650W
33-17.070167N / 116-40.179417W
33.2845028 / -116.6696569
(estimated)
Elevation: 2880 ft. / 878 m (estimated)
Variation: 13E (1985)
From city: 2 miles E of WARNER SPRINGS, CA
Time zone: UTC -8 (UTC -7 during Daylight Saving Time)
Zip code: 92086

Gliderport Operations

Gliderport use: Private use. Permission required prior to landing
Activation date: 10/1984
Control tower: no
ARTCC: LOS ANGELES CENTER
FSS: SAN DIEGO FLIGHT SERVICE STATION
Attendance: 0900-1700
Wind indicator: yes
Segmented circle: yes
Landing fee: yes

Gliderport Communications

UNICOM: 122.8
WX AWOS-1 at L08 (18 nm E): 126.575 (760-767-3308)
WX ASOS at RNM (19 nm SW): 132.025 (760-789-0736)

Nearby radio navigation aids

VOR radial/distance  VOR name  Freq  Var
JLIr319/9.6JULIAN VORTAC114.0015E
TRMr218/32.8THERMAL VORTAC116.2013E
PSPr186/37.1PALM SPRINGS VORTAC115.5013E
OCNr071/37.6OCEANSIDE VORTAC115.3015E
HDFr125/(39.2)HOMELAND VOR113.4014E

Gliderport Services

Runway Information

Runway 8/26

Dimensions: 3500 x 70 ft. / 1067 x 21 m
Surface: asphalt
RUNWAY 8  RUNWAY 26
Latitude: 33-17.060333N33-17.080000N
Longitude: 116-40.522667W116-39.836167W
Elevation: 2873.0 ft.2914.0 ft.
Traffic pattern: leftleft
Obstructions: none200 ft. hill, 5200 ft. from runway

Gliderport Ownership and Management from official FAA records

Ownership: Privately-owned
Owner: WARNER SPRINGS RANCH RESORT, LLC
31930 HWY 79
WARNER SPRINGS, CA 92086
Phone 760-782-4200
SKY SAILING 31930 HWY 79.
Manager: BRET WILLAT
SKY SAILING 31930 HWY 79
WARNER SPRINGS, CA 92086
Phone 760-782-0404
LEASEE.

Gliderport Operational Statistics

Aircraft based on the field: 80
Single engine airplanes: 10
Gliders airplanes: 70
    

Instrument Procedures

There are no published instrument procedures at CL35.

Some nearby airports with instrument procedures:

L08 - Borrego Valley Airport (18 nm E)
KRNM - Ramona Airport (19 nm SW)
F70 - French Valley Airport (29 nm NW)
L18 - Fallbrook Community Airpark (29 nm W)
KSEE - Gillespie Field Airport (31 nm SW)
 
Loc | Ops | Rwys | IFR | FBO | Links
Com | Nav | Svcs | Stats | Notes


 
Area around CL35 (Warner Springs Gliderport)
 
Road maps at: MapQuest Bing Google
 
Aerial photo
WARNING: Photo may not be current or correct
Aerial photo of CL35 (Warner Springs Gliderport)
Photo by Steve Lupinacci
Photo taken 27-May-2008

Do you have a better or more recent aerial photo of Warner Springs Gliderport that you would like to share? If so, please send us your photo.

 
Sectional chart

 
Airport distance calculator
Flying to Warner Springs Gliderport? Find the distance to fly.

From to CL35

Sunrise and sunset
Times for 20-Nov-2017
 Local
(UTC-8)
 Zulu
(UTC)
Morning civil twilight05:5713:57
Sunrise06:2414:24
Sunset16:4100:41
Evening civil twilight17:0801:08

Current date and time
Zulu (UTC)  20-Nov-2017 23:12:46
Local (UTC-8)  20-Nov-2017 15:12:46
 
METAR
KRNM 
20nm SW 
202253Z A3001 RMK AO2 SLPNO $
KF70 
29nm NW 
202255Z AUTO 21006KT 10SM CLR 24/M00 A3001 RMK AO1
KL18 
29nm W 
202255Z AUTO 21004KT 10SM CLR 24/03 A3000 RMK AO2
KSEE 
32nm SW 
202247Z 28010KT 10SM SKC 24/02 A2999
KCRQ 
32nm W 
202253Z AUTO 27005KT 10SM CLR 21/07 A2999 RMK AO2 SLP152 T02060067
KTRM 
33nm NE 
202252Z AUTO 00000KT 10SM CLR 26/M07 A2994 RMK AO2 SLP139 T02611067
KPSP 
33nm N 
202253Z VRB05KT 10SM CLR 26/M09 A2999 RMK AO2 SLP153 T02561089
KNFG 
33nm W 
202257Z 21007KT 10SM FEW090 BKN200 23/05 A2997 RMK AO2 SLP149 T02280050
KNKX 
34nm SW 
202255Z 29008KT 10SM SCT150 SCT200 25/02 A3000 RMK AO2 SLP152 T02500022 $
KOKB 
34nm W 
202252Z AUTO 25006KT 10SM CLR 21/12 A2998 RMK AO2 SLP151 T02060117
TAF
KCRQ 
32nm W 
201720Z 2018/2118 VRB06KT P6SM SCT200= TAF KSTS 201720Z 2018/2118 VRB03KT P6SM -SHRA BKN022 OVC040 WS020/21025KT TEMPO 2018/2020 2SM -RA BR OVC020 FM202000 15003KT 6SM -RA BR SCT012 BKN025 OVC040 FM210000 VRB03KT P6SM FEW012 SCT100 FM210500 11003KT 3/4SM BR VV002 FM210700 11004KT 1/4SM FG VV001 FM211400 00000KT 3SM BR OVC004 FM211730 VRB03KT P6SM FEW020 BKN120
KTRM 
33nm NE 
201720Z 2018/2118 VRB06KT P6SM FEW200
KPSP 
33nm N 
201720Z 2018/2118 VRB06KT P6SM SCT200
KNFG 
33nm W 
2021/2121 VRB05KT 9999 FEW250 QNH2995INS BECMG 2116/2118 24008KT 9999 SCT250 QNH2999INS T02/2114Z T23/2121Z
KNKX 
34nm SW 
2021/2121 28008KT 9999 FEW250 QNH2995INS BECMG 2103/2105 VRB05KT 9999 FEW250 QNH2998INS BECMG 2116/2118 31008KT 9999 FEW250 QNH2999INS T08/2114Z T28/2121Z
NOTAMs
Click for the latest NOTAMs
NOTAMs are issued by the DoD/FAA and will open in a separate window not controlled by AirNav.

 

 
 

Would you like to see your business listed on this page?

 If your business provides an interesting product or service to pilots, flight crews, aircraft, or users of the Warner Springs Gliderport, you should consider listing it here.  To start the listing process, click on the button below
 
Add a business
 

Other Pages about Warner Springs Gliderport

www.agcsc.org/warner_springs_info.html
 
Update a link
 
Copyright © AirNav, LLC. All rights reserved. Privacy Policy  Contact